首页
METAR-TAF:

METAR-TAF

机场 :

梅薩, 亞利桑那州, 美国

纬度: 33-28N, 经度: 111-44W, 海拔: 424米

当前天气观测

该预报发布于1小时和1分钟前的04:54 UTC
风速6节,风向西
温度 28°C
湿度 10%
气压 1008 hPa
能見度: 16.1公里
天空无云

METAR: KFFZ 250454Z AUTO 26006KT 10SM CLR 28/M06 A2977 RMK AO2 SLP056 T02831056

时间: 22:55 (05:55 UTC)


TAF: 丢失

超过4000个机场的气象观测和天气预报(METAR&TAF报告)。

可查询的气象台以黄色和红色小点在地图上表示。

将鼠标移到小点上方,可查看气象台名称。

然后点击查看天气观测和预报。

如需切换地图:点击带黑十字的绿色按钮放大地图;点击带横线的绿色按钮缩小地图;或者点击绿色箭头查看邻近地区的地图。


METAR-TAF: